LFRBLFRQ

Guest
Details From LFRB - Brest Bretagne
To LFRQ - Quimper Pluguffan
Flight Number -
Tags generated
Created
Modified
Stats Distance 32 nm / 59 km
Max Altitude 200 ft / 61 m
Waypoints 3
Social Downloads 0
Likes 0
Share VATSIM

Download

Looking for another format? Having issues loading an existing format? Contact us
Advertisement - Login to hide

Notes

Basic altitude profile: - Ascent Rate: 2500ft/min - Ascent Speed: 250kts - Cruise Altitude: 35000ft - Cruise Speed: 420kts - Descent Rate: 1500ft/min - Descent Speed: 250kts

Route

LFRB QPR LFRQ

ID Type Via Altitude Latitude Longitude Leg Dist Tot Dist Heading (true) Name
O LFRB APT - 0 ft / 0 m 48.44938˚ -4.41823˚ - 0 nm - Brest Bretagne
QPR VOR - 200 ft / 61 m 47.95728˚ -4.18472˚ 30 nm 30 nm 162° / 163° QUIMPER PLUGUFFAN VOR-DME
O LFRQ APT - 0 ft / 0 m 47.97278˚ -4.17156˚ 1 nm 32 nm 30° / 30° Quimper Pluguffan

Altitude Profile

Advertisement - Login to hide

LFRB

Details ICAO LFRB (BES)
Name Brest Bretagne
Region France
Timezone Europe/Paris (UTC+2.0)
Stats Elevation 325 ft / 99 m (AMSL)
Location 48.449376° -4.418232°
Runways 2
Magnetic Variation 1.512° W

METAR

LFRB 270530Z AUTO 19006KT 4200 BR OVC003 15/15 Q1012 BECMG 5000 NSW BKN025

Decode

TAF

TAF AMD LFRB 270428Z 2704/2806 06008KT 5000 OVC030 BECMG 2704/2706 16010KT TEMPO 2704/2707 2000 BR OVC003 BECMG 2708/2710 8000 NSW

Decode

Departure Runways

ID Width Length Bearing (true) Bearing (mag) Surface Threshold Offset Overrun Length
07L 62 ft / 19 m 2,518 ft / 768 m 71.21° 72.72° Asphalt 131 ft / 40 m 0 ft / 0 m
07R 148 ft / 45 m 10,153 ft / 3,095 m 71.16° 72.67° Asphalt 0 ft / 0 m 0 ft / 0 m
25L 148 ft / 45 m 10,153 ft / 3,095 m 251.19° 252.70° Asphalt 984 ft / 300 m 0 ft / 0 m
25R 62 ft / 19 m 2,518 ft / 768 m 251.22° 252.73° Asphalt 112 ft / 34 m 0 ft / 0 m

LFRQ

Details ICAO LFRQ (UIP)
Name Quimper Pluguffan
Region France
Timezone Europe/Paris (UTC+2.0)
Stats Elevation 297 ft / 91 m (AMSL)
Location 47.972777° -4.171559°
Runways 2
Magnetic Variation 1.372° W

METAR

LFRQ 270530Z AUTO 15004KT 8000 SCT004 BKN013 OVC018 15/15 Q1012 TEMPO 2000 BR BECMG BKN025

Decode

TAF

TAF LFRQ 262139Z 2621/2718 CNL

Decode

Destination Runways

ID Width Length Bearing (true) Bearing (mag) Surface Threshold Offset Overrun Length
04 148 ft / 45 m 3,632 ft / 1,107 m 32.51° 33.88° Asphalt 1,148 ft / 350 m 0 ft / 0 m
10 148 ft / 45 m 7,035 ft / 2,144 m 93.49° 94.86° Asphalt 344 ft / 105 m 197 ft / 60 m
22 148 ft / 45 m 3,632 ft / 1,107 m 212.52° 213.89° Asphalt 0 ft / 0 m 0 ft / 0 m
28 148 ft / 45 m 7,035 ft / 2,144 m 273.51° 274.88° Asphalt 0 ft / 0 m 0 ft / 0 m

Approach Navaids

Runway Type Ident Frequency Range Bearing (true) Bearing (mag) Slope Elevation
28 Localiser QR 110.30 MHz 18 nm / 33 km 273.51° 274.88° - 295 ft / 90 m (AMSL)
28 Glidescope QR 110.30 MHz 10 nm / 19 km 273.50° 274.88° 3.00° 295 ft / 90 m (AMSL)
28 DME QR 110.30 MHz 18 nm / 33 km - - - 332 ft / 101 m (AMSL)

Popular Alternatives